createdAt,value
2019-03-27T00:01:14.695Z,15.47
2019-03-27T00:03:44.043Z,17.20
2019-03-27T00:06:13.727Z,17.63
2019-03-27T00:08:43.353Z,17.93
2019-03-27T00:11:16.383Z,15.87
2019-03-27T00:14:10.738Z,17.77
2019-03-27T00:16:40.080Z,17.70
2019-03-27T00:19:09.710Z,16.93
2019-03-27T00:21:39.315Z,18.07
2019-03-27T00:24:08.939Z,17.93
2019-03-27T00:26:38.534Z,17.20
2019-03-27T00:29:07.884Z,17.57
2019-03-27T00:31:37.556Z,16.83
2019-03-27T00:34:06.902Z,17.53
2019-03-27T00:36:36.237Z,18.03
2019-03-27T00:39:45.557Z,16.87
2019-03-27T00:42:15.191Z,16.80
2019-03-27T00:44:44.802Z,16.90
2019-03-27T00:47:16.045Z,17.55
2019-03-27T00:49:45.615Z,17.10
2019-03-27T00:52:15.257Z,18.07
2019-03-27T00:54:44.869Z,17.00
2019-03-27T00:57:14.293Z,17.50
2019-03-27T00:59:43.875Z,17.27
2019-03-27T01:02:13.488Z,17.27
2019-03-27T01:04:42.830Z,17.73
2019-03-27T01:07:12.496Z,18.90
2019-03-27T01:09:42.102Z,16.60
2019-03-27T01:12:11.706Z,17.67
2019-03-27T01:14:41.037Z,18.17
2019-03-27T01:17:16.262Z,16.77
2019-03-27T01:19:45.841Z,19.07
2019-03-27T01:22:15.178Z,19.00
2019-03-27T01:24:44.865Z,17.20
2019-03-27T01:27:14.199Z,17.80
2019-03-27T01:29:43.543Z,18.67
2019-03-27T01:32:12.903Z,19.10
2019-03-27T01:34:42.484Z,19.47
2019-03-27T01:37:11.830Z,20.50
2019-03-27T01:39:41.188Z,18.50
2019-03-27T01:42:10.578Z,18.77
2019-03-27T01:44:40.151Z,19.10
2019-03-27T01:47:09.503Z,19.30
2019-03-27T01:49:39.098Z,22.60
2019-03-27T01:52:08.589Z,19.23
2019-03-27T01:54:38.166Z,20.23
2019-03-27T01:57:07.573Z,19.73
2019-03-27T01:59:37.051Z,19.47
2019-03-27T02:02:06.391Z,21.93
2019-03-27T02:04:36.277Z,20.48
2019-03-27T02:07:05.842Z,21.27
2019-03-27T02:09:35.303Z,21.20
2019-03-27T02:12:04.652Z,20.62
2019-03-27T02:14:33.956Z,21.30
2019-03-27T02:17:03.304Z,19.60
2019-03-27T02:19:37.995Z,21.97
2019-03-27T02:25:41.611Z,21.17
2019-03-27T02:28:10.952Z,21.47
2019-03-27T02:30:52.100Z,21.50
2019-03-27T02:33:21.509Z,21.17
2019-03-27T02:35:51.088Z,21.00
2019-03-27T02:38:20.697Z,20.93
2019-03-27T02:40:50.018Z,21.33
2019-03-27T02:43:32.237Z,21.80
2019-03-27T02:46:01.669Z,20.83
2019-03-27T02:48:30.976Z,21.77
2019-03-27T02:51:00.306Z,21.50
2019-03-27T02:53:29.637Z,20.70
2019-03-27T02:55:58.971Z,22.10
2019-03-27T02:58:28.289Z,24.10
2019-03-27T03:00:57.618Z,22.47
2019-03-27T03:03:26.954Z,27.40
2019-03-27T03:05:56.282Z,24.90
2019-03-27T03:08:25.623Z,26.35
2019-03-27T03:10:54.967Z,26.82
2019-03-27T03:13:43.381Z,24.77
2019-03-27T03:16:12.722Z,24.40
2019-03-27T03:18:42.065Z,24.55
2019-03-27T03:21:11.393Z,24.40
2019-03-27T03:23:59.827Z,25.68
2019-03-27T03:26:29.153Z,23.17
2019-03-27T03:28:58.495Z,26.23
2019-03-27T03:31:39.597Z,26.50
2019-03-27T03:34:08.927Z,26.70
2019-03-27T03:36:57.589Z,26.80
2019-03-27T03:39:26.928Z,24.97
2019-03-27T03:41:56.275Z,25.68
2019-03-27T03:44:25.596Z,25.77
2019-03-27T03:46:59.899Z,25.43
2019-03-27T03:49:45.060Z,27.52
2019-03-27T03:52:14.607Z,26.70
2019-03-27T03:54:43.951Z,26.57
2019-03-27T04:00:47.359Z,24.60
2019-03-27T04:03:29.126Z,27.30
2019-03-27T04:05:58.642Z,26.63
2019-03-27T04:08:28.020Z,26.63
2019-03-27T04:10:57.415Z,26.47
2019-03-27T04:13:26.752Z,26.80
2019-03-27T04:15:56.086Z,26.20
2019-03-27T04:18:25.421Z,25.50
2019-03-27T04:20:54.743Z,27.87
2019-03-27T04:23:24.172Z,27.42
2019-03-27T04:26:09.076Z,26.00
2019-03-27T04:28:34.005Z,26.73
2019-03-27T04:31:15.262Z,26.73
2019-03-27T04:33:44.607Z,27.13
2019-03-27T04:36:13.968Z,26.62
2019-03-27T04:38:55.384Z,27.57
2019-03-27T04:41:24.707Z,26.53
2019-03-27T04:43:54.043Z,24.90
2019-03-27T04:46:23.373Z,26.00
2019-03-27T04:48:52.698Z,25.83
2019-03-27T04:51:22.021Z,26.80
2019-03-27T04:53:51.617Z,26.50
2019-03-27T04:56:20.939Z,27.77
2019-03-27T04:58:50.278Z,28.53
2019-03-27T05:01:19.947Z,27.13
2019-03-27T05:07:13.746Z,27.95
2019-03-27T05:09:42.206Z,28.90
2019-03-27T05:12:11.548Z,26.33
2019-03-27T05:14:40.876Z,28.80
2019-03-27T05:17:10.201Z,27.87
2019-03-27T05:19:39.540Z,27.30
2019-03-27T05:22:08.864Z,30.10
2019-03-27T05:24:43.535Z,29.93
2019-03-27T05:27:12.870Z,30.87
2019-03-27T05:29:42.202Z,30.40
2019-03-27T05:32:11.534Z,29.57
2019-03-27T05:34:41.149Z,29.23
2019-03-27T05:37:10.758Z,31.00
2019-03-27T05:39:40.102Z,31.52
2019-03-27T05:42:28.846Z,31.10
2019-03-27T05:44:58.189Z,31.10
2019-03-27T05:47:27.518Z,30.23
2019-03-27T05:49:56.847Z,30.07
2019-03-27T05:52:26.194Z,29.77
2019-03-27T05:55:07.619Z,30.88
2019-03-27T05:57:36.954Z,30.13
2019-03-27T06:03:40.073Z,31.40
2019-03-27T06:06:09.405Z,31.23
2019-03-27T06:08:38.729Z,30.40
2019-03-27T06:11:08.082Z,31.50
2019-03-27T06:13:37.415Z,30.90
2019-03-27T06:16:06.738Z,31.77
2019-03-27T06:18:36.089Z,31.33
2019-03-27T06:21:05.435Z,31.97
2019-03-27T06:23:34.763Z,30.83
2019-03-27T06:26:04.260Z,29.37
2019-03-27T06:28:33.590Z,29.45
2019-03-27T06:31:02.914Z,28.67
2019-03-27T06:33:32.250Z,30.03
2019-03-27T06:36:01.606Z,31.63
2019-03-27T06:38:30.929Z,30.80
2019-03-27T06:41:00.265Z,32.13
2019-03-27T06:43:29.591Z,31.10
2019-03-27T06:45:58.924Z,31.17
2019-03-27T06:48:28.258Z,30.10
2019-03-27T06:50:57.663Z,33.50
2019-03-27T06:53:27.000Z,32.53
2019-03-27T06:55:56.327Z,33.10
2019-03-27T06:58:25.891Z,30.50
2019-03-27T07:00:55.224Z,31.50
2019-03-27T07:03:24.550Z,33.47
2019-03-27T07:05:53.885Z,33.10
2019-03-27T07:08:23.210Z,34.20
2019-03-27T07:10:52.541Z,31.90
2019-03-27T07:13:21.889Z,33.55
2019-03-27T07:15:51.214Z,33.30
2019-03-27T07:18:20.559Z,31.53
2019-03-27T07:20:49.883Z,34.17
2019-03-27T07:23:19.210Z,34.23
2019-03-27T07:26:07.885Z,31.27
2019-03-27T07:28:43.042Z,32.90
2019-03-27T07:31:12.374Z,33.27
2019-03-27T07:33:41.703Z,31.07
2019-03-27T07:36:11.030Z,33.50
2019-03-27T07:38:40.362Z,33.10
2019-03-27T07:41:09.691Z,31.90
2019-03-27T07:43:39.026Z,32.10
2019-03-27T07:46:08.350Z,30.10
2019-03-27T07:48:37.971Z,32.70
2019-03-27T07:51:07.303Z,31.00
2019-03-27T07:53:36.631Z,30.47
2019-03-27T07:56:06.278Z,30.50
2019-03-27T07:58:35.603Z,32.87
2019-03-27T08:01:04.925Z,33.77
2019-03-27T08:03:34.589Z,33.07
2019-03-27T08:06:03.922Z,33.90
2019-03-27T08:08:33.259Z,32.97
2019-03-27T08:11:02.646Z,31.90
2019-03-27T08:13:31.913Z,32.50
2019-03-27T08:16:01.248Z,34.17
2019-03-27T08:18:30.574Z,32.63
2019-03-27T08:21:05.630Z,31.37
2019-03-27T08:23:34.964Z,33.70
2019-03-27T08:26:04.301Z,32.90
2019-03-27T08:28:39.118Z,33.60
2019-03-27T08:31:08.468Z,35.30
2019-03-27T08:33:37.790Z,33.03
2019-03-27T08:36:07.122Z,33.43
2019-03-27T08:38:36.454Z,31.00
2019-03-27T08:41:05.791Z,33.63
2019-03-27T08:43:35.116Z,33.37
2019-03-27T08:46:04.443Z,32.03
2019-03-27T08:48:33.791Z,33.97
2019-03-27T08:51:03.119Z,31.53
2019-03-27T08:53:34.422Z,30.77
2019-03-27T08:56:03.817Z,30.00
2019-03-27T08:58:33.153Z,32.53
2019-03-27T09:01:02.842Z,32.60
2019-03-27T09:03:32.176Z,31.67
2019-03-27T09:06:01.506Z,32.43
2019-03-27T09:08:30.832Z,32.20
2019-03-27T09:11:00.448Z,31.87
2019-03-27T09:13:29.771Z,29.57
2019-03-27T09:15:59.110Z,31.37
2019-03-27T09:18:47.785Z,32.03
2019-03-27T09:21:17.122Z,28.03
2019-03-27T09:23:46.449Z,26.77
2019-03-27T09:26:15.787Z,27.20
2019-03-27T09:28:45.118Z,25.17
2019-03-27T09:31:19.668Z,25.13
2019-03-27T09:33:49.023Z,23.70
2019-03-27T09:36:18.351Z,23.40
2019-03-27T09:38:47.685Z,16.97
2019-03-27T09:41:17.031Z,21.20
2019-03-27T09:43:46.643Z,21.63
2019-03-27T09:46:17.624Z,17.77
2019-03-27T09:48:46.952Z,18.03
2019-03-27T09:51:16.291Z,16.47
2019-03-27T09:53:45.631Z,18.60
2019-03-27T09:56:34.291Z,18.00
2019-03-27T09:59:06.033Z,21.03
2019-03-27T10:01:53.823Z,19.70
2019-03-27T10:04:42.506Z,21.03
2019-03-27T10:07:11.827Z,17.97
2019-03-27T10:09:41.168Z,18.40
2019-03-27T10:12:10.502Z,17.43
2019-03-27T10:14:39.834Z,20.10
2019-03-27T10:17:09.176Z,18.23
2019-03-27T10:19:38.678Z,18.00
2019-03-27T10:22:08.021Z,22.70
2019-03-27T10:24:37.363Z,16.97
2019-03-27T10:27:06.697Z,20.80
2019-03-27T10:29:36.024Z,17.90
2019-03-27T10:32:11.095Z,15.23
2019-03-27T10:34:40.427Z,16.10
2019-03-27T10:37:09.764Z,17.47
2019-03-27T10:39:39.090Z,16.90
2019-03-27T10:42:20.883Z,18.43
2019-03-27T10:44:50.211Z,12.20
2019-03-27T10:47:19.543Z,14.60
2019-03-27T10:49:48.884Z,14.77
2019-03-27T10:52:18.220Z,14.30
2019-03-27T10:54:59.416Z,13.70
2019-03-27T10:57:29.027Z,14.83
2019-03-27T10:59:58.366Z,14.93
2019-03-27T11:02:27.697Z,14.83
2019-03-27T11:04:57.027Z,15.17
2019-03-27T11:07:26.367Z,13.43
2019-03-27T11:09:55.696Z,15.40
2019-03-27T11:12:25.028Z,15.23
2019-03-27T11:14:54.365Z,16.57
2019-03-27T11:17:23.698Z,16.67
2019-03-27T11:19:53.043Z,17.60
2019-03-27T11:22:22.374Z,16.27
2019-03-27T11:24:51.705Z,12.73
2019-03-27T11:27:21.035Z,15.40
2019-03-27T11:29:50.366Z,15.90
2019-03-27T11:32:19.836Z,16.17
2019-03-27T11:34:49.164Z,17.27
2019-03-27T11:37:18.836Z,15.60
2019-03-27T11:39:48.167Z,16.47
2019-03-27T11:42:17.501Z,14.90
2019-03-27T11:44:46.839Z,16.87
2019-03-27T11:47:16.168Z,17.57
2019-03-27T11:49:45.499Z,16.20
2019-03-27T11:52:15.173Z,17.40
2019-03-27T11:54:44.503Z,18.50
2019-03-27T11:57:13.842Z,17.10
2019-03-27T11:59:53.339Z,16.73
2019-03-27T12:02:20.054Z,15.87
2019-03-27T12:04:49.388Z,18.03
2019-03-27T12:07:18.713Z,17.10
2019-03-27T12:09:48.051Z,15.97
2019-03-27T12:12:17.386Z,15.50
2019-03-27T12:14:47.070Z,15.03
2019-03-27T12:17:16.479Z,13.90
2019-03-27T12:19:45.814Z,14.47
2019-03-27T12:22:15.484Z,14.30
2019-03-27T12:24:46.464Z,14.10
2019-03-27T12:27:15.796Z,12.67
2019-03-27T12:29:45.131Z,13.10
2019-03-27T12:32:14.474Z,11.80
2019-03-27T12:34:43.819Z,12.60
2019-03-27T12:37:13.150Z,12.60
2019-03-27T12:39:42.714Z,12.97
2019-03-27T12:42:12.056Z,13.70
2019-03-27T12:44:41.388Z,13.10
2019-03-27T12:47:10.790Z,14.33
2019-03-27T12:49:40.127Z,14.10
2019-03-27T12:52:22.104Z,13.20
2019-03-27T12:55:03.532Z,14.23
2019-03-27T12:57:32.859Z,13.80
2019-03-27T13:00:02.195Z,13.57
2019-03-27T13:02:31.526Z,12.93
2019-03-27T13:05:00.855Z,12.80
2019-03-27T13:07:30.195Z,13.60
2019-03-27T13:09:59.523Z,12.77
2019-03-27T13:12:28.859Z,13.30
2019-03-27T13:14:58.197Z,13.10
2019-03-27T13:17:27.528Z,12.63
2019-03-27T13:20:08.815Z,12.33
2019-03-27T13:22:38.619Z,12.20
2019-03-27T13:28:16.366Z,13.20
2019-03-27T13:30:45.710Z,13.10
2019-03-27T13:33:15.045Z,13.07
2019-03-27T13:35:50.225Z,12.03
2019-03-27T13:38:19.566Z,13.77
2019-03-27T13:40:48.892Z,12.80
2019-03-27T13:43:18.241Z,14.90
2019-03-27T13:45:47.566Z,12.27
2019-03-27T13:48:17.197Z,11.70
2019-03-27T13:50:46.535Z,11.93
2019-03-27T13:53:16.207Z,12.97
2019-03-27T13:55:45.547Z,12.03
2019-03-27T13:58:16.515Z,13.07
2019-03-27T14:01:05.193Z,11.83
2019-03-27T14:03:46.263Z,13.53
2019-03-27T14:06:28.196Z,12.60
2019-03-27T14:08:57.530Z,12.40
2019-03-27T14:11:26.864Z,11.70
2019-03-27T14:13:56.199Z,12.30
2019-03-27T14:16:25.534Z,12.33
2019-03-27T14:18:54.874Z,12.20
2019-03-27T14:21:24.203Z,11.60
2019-03-27T14:23:53.890Z,13.10
2019-03-27T14:26:23.223Z,12.67
2019-03-27T14:28:52.555Z,12.50
2019-03-27T14:31:21.895Z,11.60
2019-03-27T14:33:51.225Z,11.47
2019-03-27T14:36:20.666Z,10.60
2019-03-27T14:38:49.996Z,11.50
2019-03-27T14:41:19.323Z,11.77
2019-03-27T14:43:48.670Z,10.97
2019-03-27T14:46:18.000Z,11.00
2019-03-27T14:48:47.335Z,11.53
2019-03-27T14:51:16.662Z,12.00
2019-03-27T14:53:46.001Z,10.67
2019-03-27T14:56:15.410Z,11.10
2019-03-27T14:58:44.734Z,10.80
2019-03-27T15:01:14.144Z,10.43
2019-03-27T15:04:02.807Z,10.70
2019-03-27T15:06:32.147Z,8.83
2019-03-27T15:09:01.470Z,9.97
2019-03-27T15:11:30.799Z,9.73
2019-03-27T15:14:06.012Z,10.00
2019-03-27T15:16:35.352Z,10.00
2019-03-27T15:19:04.759Z,9.00
2019-03-27T15:21:34.095Z,10.37
2019-03-27T15:24:15.566Z,9.13
2019-03-27T15:26:44.896Z,10.10
2019-03-27T15:29:14.220Z,9.13
2019-03-27T15:31:43.564Z,10.10
2019-03-27T15:34:12.895Z,10.13
2019-03-27T15:36:48.146Z,10.07
2019-03-27T15:39:19.118Z,9.43
2019-03-27T15:41:48.444Z,9.40
2019-03-27T15:44:17.766Z,8.50
2019-03-27T15:46:47.105Z,9.23
2019-03-27T15:49:16.429Z,9.50
2019-03-27T15:51:45.767Z,8.60
2019-03-27T15:54:15.093Z,9.17
2019-03-27T15:56:44.426Z,8.33
2019-03-27T15:59:13.760Z,8.63
2019-03-27T16:01:43.082Z,7.90
2019-03-27T16:04:12.405Z,9.43
2019-03-27T16:06:41.737Z,8.90
2019-03-27T16:12:20.234Z,9.00
2019-03-27T16:14:49.559Z,9.40
2019-03-27T16:17:18.887Z,8.47
2019-03-27T16:19:48.222Z,8.17
2019-03-27T16:22:17.555Z,8.33
2019-03-27T16:24:46.884Z,7.70
2019-03-27T16:27:16.216Z,7.60
2019-03-27T16:29:45.541Z,8.53
2019-03-27T16:32:14.871Z,9.53
2019-03-27T16:34:44.206Z,7.93
2019-03-27T16:37:13.546Z,7.97
2019-03-27T16:39:42.874Z,8.20
2019-03-27T16:42:12.212Z,8.07
2019-03-27T16:44:41.539Z,8.83
2019-03-27T16:47:10.930Z,8.10
2019-03-27T16:49:40.269Z,8.70
2019-03-27T16:52:11.299Z,8.00
2019-03-27T16:54:40.636Z,7.93
2019-03-27T16:57:09.962Z,7.13
2019-03-27T16:59:51.435Z,7.70
2019-03-27T17:02:20.759Z,7.60
2019-03-27T17:04:50.087Z,7.27
2019-03-27T17:07:19.417Z,8.37
2019-03-27T17:09:48.732Z,6.77
2019-03-27T17:12:18.065Z,7.77
2019-03-27T17:14:47.393Z,7.77
2019-03-27T17:17:16.722Z,7.00
2019-03-27T17:19:46.046Z,7.33
2019-03-27T17:22:19.830Z,6.70
2019-03-27T17:28:28.886Z,7.07
2019-03-27T17:31:17.907Z,7.20
2019-03-27T17:33:47.244Z,8.00
2019-03-27T17:36:16.586Z,7.40
2019-03-27T17:38:45.911Z,7.60
2019-03-27T17:41:53.656Z,8.13
2019-03-27T17:44:22.986Z,8.57
2019-03-27T17:46:52.310Z,8.07
2019-03-27T17:49:21.645Z,8.13
2019-03-27T17:51:50.974Z,8.17
2019-03-27T17:54:21.097Z,8.40
2019-03-27T17:57:10.426Z,7.93
2019-03-27T17:59:39.767Z,8.40
2019-03-27T18:02:09.250Z,8.80
2019-03-27T18:04:38.818Z,9.07
2019-03-27T18:07:08.147Z,9.83
2019-03-27T18:09:37.475Z,9.37
2019-03-27T18:12:06.802Z,8.47
2019-03-27T18:14:37.773Z,9.33
2019-03-27T18:17:08.730Z,8.73
2019-03-27T18:19:39.712Z,9.60
2019-03-27T18:22:09.062Z,9.13
2019-03-27T18:24:40.034Z,9.07
2019-03-27T18:27:09.349Z,8.40
2019-03-27T18:29:40.319Z,6.90
2019-03-27T18:32:09.643Z,8.80
2019-03-27T18:34:39.045Z,8.50
2019-03-27T18:37:08.373Z,8.37
2019-03-27T18:39:37.771Z,8.20
2019-03-27T18:42:07.102Z,8.60
2019-03-27T18:44:36.421Z,8.63
2019-03-27T18:47:05.751Z,9.07
2019-03-27T18:49:35.348Z,9.90
2019-03-27T18:52:06.311Z,9.70
2019-03-27T18:54:54.735Z,9.30
2019-03-27T18:57:24.088Z,9.37
2019-03-27T18:59:55.081Z,9.50
2019-03-27T19:02:24.444Z,9.00
2019-03-27T19:04:53.780Z,9.70
2019-03-27T19:07:23.163Z,8.73
2019-03-27T19:09:52.537Z,9.90
2019-03-27T19:12:21.969Z,9.53
2019-03-27T19:14:51.319Z,10.00
2019-03-27T19:17:20.729Z,11.27
2019-03-27T19:19:50.067Z,10.40
2019-03-27T19:22:19.457Z,10.50
2019-03-27T19:28:28.404Z,10.63
2019-03-27T19:30:57.855Z,9.97
2019-03-27T19:33:27.262Z,10.73
2019-03-27T19:35:56.648Z,9.73
2019-03-27T19:38:26.032Z,10.57
2019-03-27T19:40:55.439Z,9.57
2019-03-27T19:43:24.831Z,10.63
2019-03-27T19:45:57.289Z,10.80
2019-03-27T19:48:56.898Z,10.30
2019-03-27T19:51:26.309Z,9.70
2019-03-27T19:53:55.677Z,10.80
2019-03-27T19:56:25.127Z,10.43
2019-03-27T19:58:54.524Z,9.60
2019-03-27T20:01:23.913Z,10.50
2019-03-27T20:03:53.338Z,9.90
2019-03-27T20:06:22.730Z,9.73
2019-03-27T20:08:52.128Z,10.47
2019-03-27T20:11:21.518Z,11.10
2019-03-27T20:13:50.911Z,11.33
2019-03-27T20:16:21.939Z,12.10
2019-03-27T20:18:51.364Z,10.90
2019-03-27T20:21:21.032Z,11.40
2019-03-27T20:23:50.387Z,10.70
2019-03-27T20:26:19.722Z,11.80
2019-03-27T20:28:49.060Z,13.13
2019-03-27T20:31:18.439Z,12.13
2019-03-27T20:33:47.806Z,12.97
2019-03-27T20:36:17.170Z,11.73
2019-03-27T20:38:46.562Z,12.67
2019-03-27T20:41:16.231Z,11.50
2019-03-27T20:43:45.874Z,12.33
2019-03-27T20:46:24.793Z,12.37
2019-03-27T20:49:05.497Z,11.43
2019-03-27T20:51:46.297Z,11.60
2019-03-27T20:54:15.647Z,10.90
2019-03-27T20:56:45.139Z,12.03
2019-03-27T20:59:14.464Z,11.80
2019-03-27T21:01:43.805Z,10.83
2019-03-27T21:04:13.134Z,13.50
2019-03-27T21:06:42.717Z,12.07
2019-03-27T21:09:12.048Z,13.10
2019-03-27T21:11:41.598Z,12.20
2019-03-27T21:14:10.925Z,12.30
2019-03-27T21:16:40.259Z,12.73
2019-03-27T21:19:11.219Z,12.57
2019-03-27T21:21:42.103Z,13.63
2019-03-27T21:24:30.668Z,13.10
2019-03-27T21:27:00.137Z,13.97
2019-03-27T21:29:29.722Z,13.70
2019-03-27T21:31:59.054Z,15.47
2019-03-27T21:34:28.378Z,17.10
2019-03-27T21:36:57.712Z,13.33
2019-03-27T21:39:27.100Z,13.87
2019-03-27T21:41:56.565Z,12.77
2019-03-27T21:44:25.883Z,13.40
2019-03-27T21:46:55.209Z,12.23
2019-03-27T21:49:24.544Z,14.07
2019-03-27T21:51:53.882Z,13.10
2019-03-27T21:54:23.206Z,13.13
2019-03-27T21:56:52.542Z,13.13
2019-03-27T21:59:21.878Z,12.90
2019-03-27T22:02:05.486Z,13.73
2019-03-27T22:04:31.842Z,14.30
2019-03-27T22:07:01.165Z,14.17
2019-03-27T22:09:49.614Z,12.25
2019-03-27T22:15:33.431Z,14.50
2019-03-27T22:18:02.770Z,13.53
2019-03-27T22:20:32.105Z,15.20
2019-03-27T22:23:01.582Z,14.90
2019-03-27T22:25:36.150Z,14.57
2019-03-27T22:28:11.218Z,13.60
2019-03-27T22:30:40.554Z,13.70
2019-03-27T22:33:09.888Z,12.15
2019-03-27T22:35:39.239Z,12.68
2019-03-27T22:38:08.560Z,12.53
2019-03-27T22:40:37.883Z,13.37
2019-03-27T22:43:07.298Z,12.00
2019-03-27T22:45:36.630Z,12.00
2019-03-27T22:48:05.956Z,13.10
2019-03-27T22:50:35.302Z,14.18
2019-03-27T22:53:43.072Z,13.40
2019-03-27T22:56:12.414Z,12.30
2019-03-27T22:58:41.814Z,12.60
2019-03-27T23:04:26.243Z,13.70
2019-03-27T23:06:55.842Z,13.67
2019-03-27T23:09:25.181Z,12.25
2019-03-27T23:11:54.803Z,12.05
2019-03-27T23:14:24.458Z,12.10
2019-03-27T23:16:53.805Z,13.40
2019-03-27T23:19:23.470Z,12.78
2019-03-27T23:21:54.451Z,11.43
2019-03-27T23:24:23.780Z,12.80
2019-03-27T23:26:53.109Z,12.50
2019-03-27T23:29:22.450Z,11.75
2019-03-27T23:31:51.785Z,14.65
2019-03-27T23:34:21.133Z,15.00
2019-03-27T23:36:50.465Z,14.78
2019-03-27T23:39:19.799Z,14.50
2019-03-27T23:41:49.139Z,14.33
2019-03-27T23:44:25.578Z,16.37
2019-03-27T23:46:54.917Z,14.55
2019-03-27T23:49:24.245Z,15.00
2019-03-27T23:51:53.590Z,14.58
2019-03-27T23:54:22.926Z,15.05
2019-03-27T23:56:52.254Z,14.07
2019-03-27T23:59:21.623Z,13.83
